Time;durP1;ratioP1;P1;durP2;ratioP2;P2;SDS_P1;SDS_P2;PMS_P1;PMS_P2;Temp;Humidity;BMP_temperature;BMP_pressure;BME280_temperature;BME280_humidity;BME280_pressure;Samples;Min_cycle;Max_cycle;Signal;HPM_P1;HPM_P2
2021/01/03 00:00:15;;;;;;;33.65;18.48;;;;;;;6.45;73.97;99474.06;5070955;28;20377;-71
2021/01/03 00:02:40;;;;;;;36.10;18.70;;;;;;;6.44;73.80;99466.34;5070598;28;20039;-71
2021/01/03 00:05:06;;;;;;;34.90;18.67;;;;;;;6.39;73.33;99465.19;5069636;28;20044;-72
2021/01/03 00:07:32;;;;;;;44.47;21.92;;;;;;;6.38;72.84;99470.72;5069209;28;20039;-73
2021/01/03 00:09:57;;;;;;;40.00;20.17;;;;;;;6.35;72.49;99472.03;5069629;28;20035;-72
2021/01/03 00:12:23;;;;;;;33.30;17.02;;;;;;;6.31;71.97;99467.41;5086296;28;20484;-71
2021/01/03 00:14:48;;;;;;;23.92;14.88;;;;;;;6.31;71.87;99468.25;5086154;28;20020;-71
2021/01/03 00:17:13;;;;;;;31.38;15.23;;;;;;;6.27;71.46;99472.41;5086492;28;20447;-71
2021/01/03 00:19:39;;;;;;;27.80;15.30;;;;;;;6.24;71.73;99471.03;5086184;28;20024;-71
2021/01/03 00:22:04;;;;;;;25.08;14.20;;;;;;;6.22;71.80;99464.34;5069336;28;20503;-72
2021/01/03 00:24:30;;;;;;;25.10;15.52;;;;;;;6.19;72.07;99465.63;5070267;28;20078;-71
2021/01/03 00:26:55;;;;;;;24.35;14.98;;;;;;;6.17;71.95;99473.00;5070730;28;20024;-70
2021/01/03 00:29:20;;;;;;;25.52;14.95;;;;;;;6.14;72.10;99468.19;5069454;28;20089;-71
2021/01/03 00:31:49;;;;;;;29.23;15.23;;;;;;;6.15;71.79;99472.44;5070463;28;20099;-71
2021/01/03 00:34:15;;;;;;;;;;;;;;;6.14;72.74;99464.69;5071017;28;20106;-72
2021/01/03 00:36:41;;;;;;;23.25;14.95;;;;;;;6.11;72.90;99460.66;5070460;28;19920;-71
2021/01/03 00:39:07;;;;;;;23.88;15.50;;;;;;;6.05;73.14;99449.16;5069100;28;20059;-71
2021/01/03 00:41:33;;;;;;;25.77;14.63;;;;;;;6.05;73.13;99441.19;5069101;28;20025;-72
2021/01/03 00:43:58;;;;;;;24.60;14.23;;;;;;;6.09;73.37;99450.28;5072014;28;20415;-72
2021/01/03 00:46:24;;;;;;;25.23;15.00;;;;;;;6.09;73.47;99444.16;5074451;28;20113;-71
2021/01/03 00:48:49;;;;;;;32.45;17.63;;;;;;;6.07;73.68;99438.31;5074446;28;20086;-71
2021/01/03 00:51:14;;;;;;;28.85;16.42;;;;;;;6.06;73.89;99437.47;5089959;28;20121;-71
2021/01/03 00:53:40;;;;;;;31.40;18.58;;;;;;;6.06;75.29;99434.81;5074093;28;20036;-71
2021/01/03 00:56:05;;;;;;;31.52;18.42;;;;;;;6.06;75.88;99445.44;5072919;28;20039;-71
2021/01/03 00:58:30;;;;;;;38.38;21.63;;;;;;;6.07;76.42;99448.91;5073678;28;20024;-71
2021/01/03 01:00:56;;;;;;;32.85;19.30;;;;;;;6.12;76.43;99443.69;5073902;28;20104;-71
2021/01/03 01:03:21;;;;;;;33.13;19.17;;;;;;;6.16;75.80;99436.88;5072806;28;20408;-71
2021/01/03 01:05:47;;;;;;;39.13;22.80;;;;;;;6.19;76.77;99433.75;5073888;28;20033;-71
2021/01/03 01:08:12;;;;;;;44.75;25.05;;;;;;;6.20;77.03;99435.38;5073934;28;20399;-71
2021/01/03 01:10:38;;;;;;;46.80;24.95;;;;;;;6.08;77.97;99416.03;5072442;28;20114;-71
2021/01/03 01:13:03;;;;;;;42.30;22.55;;;;;;;6.15;77.64;99419.34;5072411;28;20028;-73
2021/01/03 01:15:31;;;;;;;42.42;21.83;;;;;;;6.18;77.12;99428.69;5073614;28;20048;-71
2021/01/03 01:18:01;;;;;;;39.30;22.25;;;;;;;6.26;77.58;99433.59;5073552;28;20111;-71
2021/01/03 01:20:28;;;;;;;45.72;23.45;;;;;;;6.30;77.24;99440.06;5073818;28;20032;-71
2021/01/03 01:22:53;;;;;;;42.90;22.65;;;;;;;6.33;77.59;99431.59;5073400;28;20025;-71
2021/01/03 01:25:22;;;;;;;60.92;24.08;;;;;;;6.29;78.21;99427.81;5073758;28;20035;-71
2021/01/03 01:27:47;;;;;;;49.60;24.40;;;;;;;6.31;77.78;99419.59;5073393;28;20032;-71
2021/01/03 01:30:14;;;;;;;54.70;25.83;;;;;;;6.30;78.32;99424.13;5073358;28;20077;-71
2021/01/03 01:32:40;;;;;;;58.83;28.20;;;;;;;6.27;78.19;99405.19;5073059;28;20021;-71
2021/01/03 01:35:09;;;;;;;54.30;26.27;;;;;;;6.30;78.71;99410.00;5071648;28;20419;-71
2021/01/03 01:37:35;;;;;;;70.45;27.80;;;;;;;6.29;80.54;99405.78;5071914;28;20048;-71
2021/01/03 01:40:00;;;;;;;57.05;26.13;;;;;;;6.25;81.03;99400.91;5072175;28;20067;-71
2021/01/03 01:42:25;;;;;;;49.35;24.05;;;;;;;6.12;81.35;99377.31;5072172;28;20033;-71
2021/01/03 01:44:51;;;;;;;51.95;24.38;;;;;;;6.18;81.67;99394.16;5071887;28;20449;-71
2021/01/03 01:47:22;;;;;;;58.85;30.27;;;;;;;6.18;82.15;99394.94;5071929;28;20070;-71
2021/01/03 01:49:48;;;;;;;61.25;29.33;;;;;;;6.18;82.03;99396.81;5071738;28;20036;-71
2021/01/03 01:52:18;;;;;;;52.80;24.58;;;;;;;6.18;81.18;99394.16;5073245;28;20082;-71
2021/01/03 01:54:58;;;;;;;56.17;25.55;;;;;;;6.14;81.70;99382.38;5070739;28;20475;-71
2021/01/03 01:57:26;;;;;;;49.83;22.67;;;;;;;6.19;81.85;99387.78;5071612;28;20035;-71
2021/01/03 02:00:14;;;;;;;54.35;24.08;;;;;;;6.21;81.31;99388.34;5072663;28;20036;-71
2021/01/03 02:02:44;;;;;;;46.90;24.13;;;;;;;6.03;81.16;99360.16;5072818;28;20021;-71
2021/01/03 02:05:27;;;;;;;56.42;25.65;;;;;;;6.19;81.12;99399.22;5072752;28;20020;-71
2021/01/03 02:08:06;;;;;;;59.88;26.30;;;;;;;6.25;80.97;99410.75;5071332;28;20490;-71
2021/01/03 02:10:44;;;;;;;49.38;24.88;;;;;;;6.28;80.19;99409.47;5073019;28;20093;-71
2021/01/03 02:13:21;;;;;;;52.55;24.90;;;;;;;6.30;79.88;99408.19;5071548;28;20028;-73
2021/01/03 02:15:47;;;;;;;42.10;21.70;;;;;;;6.29;78.64;99401.25;5072279;28;20506;-71
2021/01/03 02:18:14;;;;;;;39.10;19.10;;;;;;;6.28;77.94;99396.97;5071492;28;20036;-71
2021/01/03 02:20:55;;;;;;;36.22;18.83;;;;;;;6.20;78.19;99392.88;5072733;28;20487;-71
2021/01/03 02:23:36;;;;;;;18.98;9.80;;;;;;;5.99;77.46;99381.06;5071334;28;20471;-71
2021/01/03 02:26:02;;;;;;;17.63;8.32;;;;;;;6.00;77.79;99397.81;5071241;28;20039;-71
2021/01/03 02:28:34;;;;;;;19.98;8.20;;;;;;;5.86;78.19;99381.31;5071284;28;20032;-71
2021/01/03 02:31:00;;;;;;;14.23;8.95;;;;;;;5.81;78.31;99382.03;5071224;28;20039;-71
2021/01/03 02:33:35;;;;;;;24.33;9.82;;;;;;;5.69;78.58;99375.94;5070976;28;20056;-72
2021/01/03 02:36:07;;;;;;;22.65;9.93;;;;;;;5.59;79.25;99384.50;5072735;28;20029;-71
2021/01/03 02:38:37;;;;;;;23.02;11.23;;;;;;;5.51;79.64;99369.75;5071974;28;20479;-71
2021/01/03 02:41:02;;;;;;;15.73;8.38;;;;;;;5.45;79.56;99368.84;5072265;28;20032;-71
2021/01/03 02:43:28;;;;;;;24.77;10.23;;;;;;;5.32;79.80;99361.13;5070899;28;20463;-71
2021/01/03 02:45:54;;;;;;;18.70;9.02;;;;;;;5.29;80.42;99367.72;5071549;28;20032;-71
2021/01/03 02:48:22;;;;;;;21.70;10.15;;;;;;;5.21;80.75;99377.88;5070836;28;20035;-71
2021/01/03 02:50:48;;;;;;;20.30;10.13;;;;;;;5.16;81.04;99356.56;5070569;28;20443;-71
2021/01/03 02:53:13;;;;;;;21.63;10.20;;;;;;;5.14;81.36;99354.16;5070751;28;20059;-71
2021/01/03 02:55:38;;;;;;;19.58;9.80;;;;;;;5.21;81.44;99361.97;5071771;28;20415;-71
2021/01/03 02:58:04;;;;;;;25.98;10.50;;;;;;;5.21;81.11;99351.34;5070620;28;20101;-71
2021/01/03 03:00:32;;;;;;;23.98;9.65;;;;;;;5.21;81.19;99346.88;5070296;28;20036;-71
2021/01/03 03:02:59;;;;;;;25.33;10.18;;;;;;;5.20;81.04;99344.44;5070412;28;20294;-71
2021/01/03 03:05:25;;;;;;;27.95;10.93;;;;;;;5.17;81.08;99347.56;5070497;28;20028;-71
2021/01/03 03:07:51;;;;;;;21.85;9.80;;;;;;;5.17;81.31;99351.03;5069839;28;20035;-71
2021/01/03 03:10:17;;;;;;;25.58;8.55;;;;;;;5.06;81.07;99336.72;5071424;28;20163;-71
2021/01/03 03:12:57;;;;;;;17.80;9.38;;;;;;;5.05;81.11;99336.97;5071234;28;20418;-71
2021/01/03 03:15:25;;;;;;;23.23;9.48;;;;;;;4.87;81.07;99322.81;5071419;28;20154;-71
2021/01/03 03:17:51;;;;;;;26.70;10.27;;;;;;;4.90;81.92;99353.34;5071476;28;20032;-71
2021/01/03 03:20:17;;;;;;;30.13;9.13;;;;;;;4.81;81.83;99342.28;5070199;28;20610;-71
2021/01/03 03:22:43;;;;;;;27.20;9.35;;;;;;;4.78;81.90;99346.19;5069875;28;20028;-71
2021/01/03 03:25:10;;;;;;;27.63;9.32;;;;;;;4.69;82.26;99339.63;5070185;28;20027;-72
2021/01/03 03:27:36;;;;;;;23.08;10.10;;;;;;;4.62;82.36;99342.38;5071331;28;20017;-71
2021/01/03 03:30:04;;;;;;;27.05;9.20;;;;;;;4.64;82.75;99350.13;5071123;28;20040;-71
2021/01/03 03:32:29;;;;;;;34.60;11.10;;;;;;;4.58;82.91;99345.75;5071198;28;20074;-71
2021/01/03 03:34:54;;;;;;;37.70;10.93;;;;;;;4.48;83.28;99347.09;5069258;28;20458;-71
2021/01/03 03:37:20;;;;;;;41.67;10.93;;;;;;;4.51;83.38;99347.69;5071231;28;20120;-71
2021/01/03 03:39:45;;;;;;;37.15;12.85;;;;;;;4.47;83.77;99352.63;5069645;28;20427;-71
2021/01/03 03:42:11;;;;;;;27.60;10.27;;;;;;;4.38;83.81;99341.56;5069635;28;20045;-71
2021/01/03 03:44:36;;;;;;;30.00;12.18;;;;;;;4.38;83.65;99344.22;5070907;28;20020;-71
2021/01/03 03:47:03;;;;;;;34.38;9.93;;;;;;;4.38;84.01;99340.75;5070543;28;20527;-71
2021/01/03 03:49:31;;;;;;;28.73;11.60;;;;;;;4.39;84.46;99347.66;5069885;28;20124;-71
2021/01/03 03:52:00;;;;;;;43.75;13.10;;;;;;;4.35;84.49;99346.50;5070858;28;20029;-71
2021/01/03 03:54:26;;;;;;;46.22;12.30;;;;;;;4.29;84.54;99346.38;5071106;28;20407;-71
2021/01/03 03:56:56;;;;;;;28.23;11.82;;;;;;;4.23;84.83;99331.38;5071032;28;20028;-73
2021/01/03 03:59:23;;;;;;;31.38;12.70;;;;;;;4.29;85.05;99340.28;5071028;28;20024;-71
2021/01/03 04:01:49;;;;;;;39.22;13.15;;;;;;;4.35;85.33;99346.50;5069461;28;20028;-73
2021/01/03 04:04:15;;;;;;;31.92;10.77;;;;;;;4.39;84.81;99345.81;5071023;28;20028;-71
2021/01/03 04:06:41;;;;;;;31.30;11.07;;;;;;;4.40;85.23;99349.28;5069288;28;20494;-71
2021/01/03 04:09:07;;;;;;;31.85;10.65;;;;;;;4.45;85.08;99352.84;5069703;28;20028;-71
2021/01/03 04:11:33;;;;;;;25.73;10.73;;;;;;;4.43;85.14;99336.38;5069303;28;20036;-71
2021/01/03 04:13:59;;;;;;;26.70;11.20;;;;;;;4.45;85.26;99331.66;5070659;28;20028;-71
2021/01/03 04:16:24;;;;;;;24.02;10.18;;;;;;;4.54;85.18;99345.38;5069625;28;20116;-71
2021/01/03 04:18:50;;;;;;;23.15;9.55;;;;;;;4.57;85.11;99346.78;5072195;28;20024;-71
2021/01/03 04:21:16;;;;;;;22.00;9.38;;;;;;;4.49;85.13;99329.34;5073731;28;20127;-71
2021/01/03 04:23:41;;;;;;;24.70;11.02;;;;;;;4.59;85.40;99342.84;5073280;28;20103;-71
2021/01/03 04:26:13;;;;;;;30.10;10.73;;;;;;;4.64;85.44;99344.81;5073520;28;20480;-71
2021/01/03 04:28:39;;;;;;;25.42;10.07;;;;;;;4.66;85.15;99340.09;5075125;28;20028;-71
2021/01/03 04:31:04;;;;;;;23.25;10.30;;;;;;;4.64;85.33;99337.66;5074331;28;20537;-71
2021/01/03 04:33:29;;;;;;;19.15;10.00;;;;;;;4.69;85.22;99331.69;5074485;28;20044;-71
2021/01/03 04:35:55;;;;;;;22.48;10.15;;;;;;;4.69;85.13;99320.28;5074870;28;20050;-71
2021/01/03 04:38:20;;;;;;;21.85;9.93;;;;;;;4.77;85.29;99319.94;5074731;28;20463;-71
2021/01/03 04:40:46;;;;;;;22.38;9.27;;;;;;;4.77;85.45;99310.16;5072806;28;20048;-71
2021/01/03 04:43:16;;;;;;;18.05;8.50;;;;;;;4.80;85.49;99303.59;5073291;28;20140;-71
2021/01/03 04:45:44;;;;;;;19.30;7.88;;;;;;;4.74;85.59;99289.41;5074287;28;20039;-71
2021/01/03 04:48:15;;;;;;;15.80;7.80;;;;;;;4.81;85.99;99297.25;5074352;28;20028;-71
2021/01/03 04:50:50;;;;;;;15.35;8.32;;;;;;;4.82;85.74;99301.50;5073044;28;20487;-71
2021/01/03 04:53:21;;;;;;;17.25;8.80;;;;;;;4.83;85.76;99294.38;5074429;28;20032;-72
2021/01/03 04:55:56;;;;;;;18.77;9.48;;;;;;;4.83;85.55;99294.38;5074410;28;20024;-71
2021/01/03 04:58:47;;;;;;;14.77;9.45;;;;;;;4.85;85.35;99284.34;5073979;28;20396;-71
2021/01/03 05:01:40;;;;;;;21.73;11.07;;;;;;;4.85;85.70;99287.00;5073926;28;20042;-71
2021/01/03 05:04:12;;;;;;;16.13;10.63;;;;;;;4.84;85.56;99277.44;5072748;28;20047;-71
2021/01/03 05:06:46;;;;;;;27.85;11.35;;;;;;;4.84;85.51;99286.19;5074034;28;20024;-71
2021/01/03 05:09:12;;;;;;;27.63;9.23;;;;;;;4.75;85.57;99277.78;5074044;28;20031;-71
2021/01/03 05:11:56;;;;;;;16.42;8.57;;;;;;;4.89;85.24;99298.72;5072767;28;20028;-71
2021/01/03 05:14:34;;;;;;;15.38;8.07;;;;;;;4.91;84.91;99294.00;5073682;28;20052;-71
2021/01/03 05:16:59;;;;;;;13.50;8.15;;;;;;;4.91;84.30;99297.47;5072333;28;20035;-71
2021/01/03 05:19:24;;;;;;;14.98;8.07;;;;;;;4.96;84.40;99296.78;5072577;28;20033;-71
2021/01/03 05:21:52;;;;;;;17.08;9.07;;;;;;;4.99;83.98;99298.16;5072325;28;20059;-71
2021/01/03 05:24:22;;;;;;;18.77;9.40;;;;;;;5.00;84.29;99308.50;5073698;28;20419;-71
2021/01/03 05:26:47;;;;;;;20.23;10.23;;;;;;;4.97;84.36;99311.63;5072155;28;20090;-71
2021/01/03 05:29:23;;;;;;;19.38;10.15;;;;;;;5.06;84.09;99304.13;5072365;28;20036;-71
2021/01/03 05:32:02;;;;;;;18.35;9.82;;;;;;;5.11;84.27;99309.53;5073330;28;20036;-71
2021/01/03 05:34:37;;;;;;;27.35;11.73;;;;;;;5.07;83.71;99290.63;5072013;28;20140;-71
2021/01/03 05:37:12;;;;;;;22.13;10.88;;;;;;;5.11;83.87;99306.88;5072018;28;20025;-71
2021/01/03 05:39:39;;;;;;;20.58;10.18;;;;;;;5.15;84.06;99320.47;5073217;28;20082;-71
2021/01/03 05:42:35;;;;;;;16.38;8.45;;;;;;;5.18;83.63;99317.38;5071773;28;20028;-71
2021/01/03 05:45:03;;;;;;;18.35;7.38;;;;;;;5.19;83.38;99319.78;5064270;28;20044;-71
2021/01/03 05:47:38;;;;;;;20.65;7.38;;;;;;;5.08;83.18;99296.75;5071960;28;20405;-71
2021/01/03 05:50:09;;;;;;;15.02;7.20;;;;;;;5.08;83.50;99310.81;5072796;28;20107;-73
2021/01/03 05:52:46;;;;;;;13.10;7.00;;;;;;;5.05;83.65;99313.13;5071999;28;20056;-73
2021/01/03 05:55:20;;;;;;;18.13;7.80;;;;;;;5.04;83.51;99307.03;5073272;28;20032;-71
2021/01/03 05:57:46;;;;;;;21.15;7.93;;;;;;;5.08;83.52;99312.66;5071357;28;20036;-72
2021/01/03 06:00:24;;;;;;;18.20;8.50;;;;;;;5.09;83.43;99308.94;5073400;28;20544;-71
2021/01/03 06:02:51;;;;;;;17.10;7.55;;;;;;;5.01;83.51;99283.63;5072795;28;20032;-72
2021/01/03 06:05:23;;;;;;;12.63;7.55;;;;;;;5.22;83.41;99302.59;5073052;28;20037;-72
2021/01/03 06:08:28;;;;;;;20.63;9.75;;;;;;;5.18;83.18;99296.16;5072230;28;20089;-72
2021/01/03 06:10:54;;;;;;;21.17;10.13;;;;;;;5.12;83.40;99279.34;5030092;28;20029;-72
2021/01/03 06:13:23;;;;;;;21.75;10.30;;;;;;;4.94;83.86;99251.94;5030164;28;20033;-72
2021/01/03 06:15:57;;;;;;;23.92;10.88;;;;;;;5.08;83.89;99280.84;5050933;28;20045;-72
2021/01/03 06:18:48;;;;;;;20.08;10.13;;;;;;;5.15;84.45;99292.13;5072750;28;20024;-73
2021/01/03 06:21:28;;;;;;;30.10;12.98;;;;;;;5.15;83.76;99278.88;5072454;28;20431;-73
2021/01/03 06:24:26;;;;;;;30.10;14.68;;;;;;;5.07;83.80;99280.03;5072066;28;20483;-73
2021/01/03 06:27:10;;;;;;;30.98;14.70;;;;;;;5.15;83.91;99291.31;5072441;28;20055;-72
2021/01/03 06:29:50;;;;;;;33.50;16.65;;;;;;;5.16;84.23;99290.28;5072573;28;20025;-73
2021/01/03 06:32:24;;;;;;;37.85;16.83;;;;;;;5.12;84.03;99290.72;5071156;28;20051;-73
2021/01/03 06:34:59;;;;;;;32.88;16.65;;;;;;;5.20;83.93;99299.38;5072214;28;20052;-72
2021/01/03 06:37:48;;;;;;;43.75;18.42;;;;;;;5.24;84.12;99289.94;5072348;28;20029;-72
2021/01/03 06:40:35;;;;;;;42.28;18.23;;;;;;;5.28;83.89;99293.72;5071075;28;20024;-72
2021/01/03 06:43:06;;;;;;;36.33;16.98;;;;;;;5.34;83.94;99297.28;5072026;28;20411;-72
2021/01/03 06:46:10;;;;;;;36.42;18.20;;;;;;;5.35;84.25;99275.03;5070791;28;20115;-72
2021/01/03 06:49:02;;;;;;;29.85;15.65;;;;;;;5.48;83.43;99306.56;5058236;28;20040;-73
2021/01/03 06:51:59;;;;;;;35.40;15.63;;;;;;;5.54;83.50;99299.50;5070750;28;20032;-73
2021/01/03 06:54:52;;;;;;;30.77;13.43;;;;;;;5.60;83.30;99306.50;5070745;28;20032;-72
2021/01/03 06:57:39;;;;;;;25.35;12.02;;;;;;;5.63;83.21;99300.75;5070617;28;20089;-72
2021/01/03 07:00:21;;;;;;;30.42;13.38;;;;;;;5.65;82.89;99295.19;5071421;28;20028;-72
2021/01/03 07:02:49;;;;;;;29.42;13.13;;;;;;;5.66;82.60;99310.88;5071781;28;20024;-72
2021/01/03 07:05:15;;;;;;;34.85;17.65;;;;;;;5.68;82.90;99300.84;5072034;28;20036;-72
2021/01/03 07:07:53;;;;;;;35.95;16.15;;;;;;;5.70;83.15;99308.56;5071981;28;20067;-72
2021/01/03 07:10:28;;;;;;;35.83;17.60;;;;;;;5.73;83.22;99313.41;5070134;28;20031;-73
2021/01/03 07:12:53;;;;;;;32.72;15.48;;;;;;;5.71;83.28;99300.38;5070054;28;20469;-71
2021/01/03 07:15:22;;;;;;;26.33;14.00;;;;;;;5.81;83.01;99293.63;5071305;28;20033;-71
2021/01/03 07:17:56;;;;;;;30.42;15.05;;;;;;;5.82;82.85;99292.59;5071382;28;20047;-73
2021/01/03 07:20:33;;;;;;;31.98;15.88;;;;;;;5.65;82.46;99264.19;5071509;28;20028;-71
2021/01/03 07:23:17;;;;;;;40.95;17.25;;;;;;;5.81;82.65;99288.31;5069576;28;20120;-72
2021/01/03 07:25:51;;;;;;;35.22;16.98;;;;;;;5.79;82.64;99280.59;5069477;28;20097;-72
2021/01/03 07:28:22;;;;;;;38.88;20.65;;;;;;;5.79;82.95;99277.94;5069915;28;20071;-72
2021/01/03 07:30:54;;;;;;;42.45;21.63;;;;;;;5.82;83.09;99279.31;5070094;28;20066;-72
2021/01/03 07:33:51;;;;;;;43.05;21.00;;;;;;;5.82;83.82;99285.41;5070918;28;20108;-72
2021/01/03 07:36:35;;;;;;;55.63;25.17;;;;;;;5.79;83.66;99262.03;5071269;28;20039;-72
2021/01/03 07:39:11;;;;;;;52.63;24.70;;;;;;;5.89;83.99;99278.13;5070668;28;20571;-72
2021/01/03 07:41:38;;;;;;;48.03;23.15;;;;;;;5.87;83.65;99263.47;5071171;28;20029;-72
2021/01/03 07:44:10;;;;;;;51.25;24.88;;;;;;;5.95;83.72;99270.25;5069539;28;20474;-72
2021/01/03 07:46:39;;;;;;;49.70;21.75;;;;;;;5.99;83.82;99272.19;5071067;28;20028;-72
2021/01/03 07:49:29;;;;;;;41.25;20.27;;;;;;;6.05;83.55;99281.88;5070633;28;20429;-72
2021/01/03 07:51:55;;;;;;;40.08;19.13;;;;;;;6.08;83.38;99281.41;5069285;28;20026;-72
2021/01/03 07:54:20;;;;;;;47.80;25.02;;;;;;;6.05;83.43;99281.88;5070466;28;20043;-72
2021/01/03 07:56:46;;;;;;;37.10;19.10;;;;;;;6.15;83.57;99278.59;5070792;28;20028;-72
2021/01/03 07:59:11;;;;;;;44.00;19.25;;;;;;;6.22;83.30;99276.56;5070132;28;20164;-72
2021/01/03 08:01:42;;;;;;;40.67;18.00;;;;;;;6.22;83.12;99262.50;5071032;28;20040;-72
2021/01/03 08:04:34;;;;;;;40.85;19.20;;;;;;;6.25;83.23;99257.50;5070677;28;20515;-72
2021/01/03 08:07:11;;;;;;;43.95;18.35;;;;;;;6.31;83.46;99271.69;5069302;28;20154;-72
2021/01/03 08:09:36;;;;;;;32.08;17.85;;;;;;;6.41;83.09;99286.97;5069574;28;20032;-72
2021/01/03 08:12:18;;;;;;;32.42;16.13;;;;;;;6.42;83.01;99283.28;5070497;28;20435;-72
2021/01/03 08:14:45;;;;;;;35.28;15.30;;;;;;;6.55;83.17;99298.06;5070846;28;20105;-72
2021/01/03 08:17:35;;;;;;;32.80;15.68;;;;;;;6.64;83.14;99293.94;5069139;28;20119;-72
2021/01/03 08:20:03;;;;;;;39.38;20.42;;;;;;;6.69;83.51;99291.34;5069120;28;20048;-72
2021/01/03 08:22:30;;;;;;;56.10;25.58;;;;;;;6.76;83.24;99287.72;5069352;28;20476;-72
2021/01/03 08:24:59;;;;;;;49.28;24.23;;;;;;;6.91;83.38;99290.59;5070383;28;20082;-72
2021/01/03 08:27:54;;;;;;;36.08;22.88;;;;;;;7.03;82.90;99285.97;5069365;28;20029;-72
2021/01/03 08:30:24;;;;;;;34.72;17.25;;;;;;;7.04;82.72;99274.28;5070573;28;20036;-72
2021/01/03 08:32:50;;;;;;;35.10;15.85;;;;;;;7.14;83.23;99289.56;5070511;28;20052;-72
2021/01/03 08:35:29;;;;;;;27.17;13.30;;;;;;;7.18;83.44;99295.19;5070427;28;20342;-72
2021/01/03 08:37:54;;;;;;;29.52;13.43;;;;;;;7.21;83.28;99305.31;5070173;28;20035;-72
2021/01/03 08:40:26;;;;;;;27.90;13.23;;;;;;;7.21;81.94;99302.66;5069308;28;20033;-72
2021/01/03 08:42:58;;;;;;;28.90;13.60;;;;;;;7.17;82.06;99299.69;5069195;28;20063;-72
2021/01/03 08:45:29;;;;;;;28.65;14.40;;;;;;;7.23;82.00;99300.56;5069285;28;20027;-72
2021/01/03 08:48:00;;;;;;;27.33;14.90;;;;;;;7.26;82.10;99294.75;5070219;28;20021;-73
2021/01/03 08:50:29;;;;;;;27.63;12.70;;;;;;;7.26;81.75;99299.28;5070680;28;20020;-72
2021/01/03 08:53:08;;;;;;;26.45;13.00;;;;;;;7.29;82.04;99309.44;5068926;28;20055;-72
2021/01/03 08:55:37;;;;;;;24.38;12.45;;;;;;;7.21;81.89;99282.22;5069161;28;20024;-72
2021/01/03 08:58:09;;;;;;;27.60;12.48;;;;;;;7.28;82.09;99282.00;5068714;28;20032;-72
2021/01/03 09:00:38;;;;;;;24.23;12.57;;;;;;;7.26;81.47;99283.31;5070325;28;20029;-72
2021/01/03 09:03:09;;;;;;;22.75;11.48;;;;;;;7.28;81.90;99290.00;5068749;28;20116;-72
2021/01/03 09:05:36;;;;;;;31.55;12.30;;;;;;;7.29;82.18;99290.81;5072537;28;20537;-72
2021/01/03 09:08:05;;;;;;;24.92;12.18;;;;;;;7.33;82.63;99284.72;5072413;28;20078;-71
2021/01/03 09:10:33;;;;;;;23.13;11.63;;;;;;;7.38;83.05;99289.31;5072736;28;20056;-72
2021/01/03 09:13:12;;;;;;;20.77;11.50;;;;;;;7.41;82.90;99272.03;5072396;28;20036;-72
2021/01/03 09:15:40;;;;;;;23.45;13.48;;;;;;;7.53;82.21;99286.81;5074251;28;20028;-72
2021/01/03 09:18:24;;;;;;;29.57;15.70;;;;;;;7.58;82.79;99283.41;5072395;28;20029;-72
2021/01/03 09:20:56;;;;;;;24.83;12.32;;;;;;;7.62;82.32;99273.06;5073619;28;20259;-72
2021/01/03 09:23:25;;;;;;;23.23;12.55;;;;;;;7.66;81.83;99277.63;5074041;28;20031;-72
2021/01/03 09:25:57;;;;;;;25.80;14.07;;;;;;;7.73;82.30;99277.44;5072492;28;20031;-72
2021/01/03 09:28:25;;;;;;;25.48;14.48;;;;;;;7.74;81.69;99264.91;5072290;28;20095;-72
2021/01/03 09:30:51;;;;;;;34.53;13.43;;;;;;;7.77;81.69;99267.88;5072306;28;20032;-73
2021/01/03 09:33:19;;;;;;;32.42;16.85;;;;;;;7.87;81.89;99277.03;5073250;28;20374;-72
2021/01/03 09:36:03;;;;;;;36.88;19.25;;;;;;;7.90;81.44;99280.00;5073350;28;20406;-72
2021/01/03 09:38:34;;;;;;;38.97;20.98;;;;;;;7.92;81.17;99271.75;5073550;28;20110;-72
2021/01/03 09:41:21;;;;;;;40.70;21.20;;;;;;;7.92;81.53;99269.91;5071944;28;20483;-73
2021/01/03 09:44:20;;;;;;;42.45;21.48;;;;;;;7.92;80.73;99258.44;5073454;28;20025;-72
2021/01/03 09:47:00;;;;;;;40.83;21.52;;;;;;;7.91;81.22;99252.31;5073011;28;20028;-72
2021/01/03 09:49:40;;;;;;;50.60;26.33;;;;;;;7.92;81.72;99255.78;5073628;28;20305;-72
2021/01/03 09:52:08;;;;;;;48.70;24.83;;;;;;;7.97;82.36;99253.97;5073101;28;20063;-72
2021/01/03 09:54:56;;;;;;;43.65;23.85;;;;;;;8.05;82.06;99254.56;5073224;28;20024;-71
2021/01/03 09:57:34;;;;;;;48.17;23.30;;;;;;;8.12;81.79;99255.94;5071682;28;20082;-72
2021/01/03 09:59:59;;;;;;;50.00;22.67;;;;;;;8.18;81.86;99244.28;5071615;28;20103;-72
2021/01/03 10:02:25;;;;;;;46.08;22.52;;;;;;;8.26;81.98;99250.97;5073381;28;20194;-73
2021/01/03 10:04:51;;;;;;;53.20;26.23;;;;;;;8.31;82.19;99248.38;5071777;28;20028;-73
2021/01/03 10:07:35;;;;;;;63.17;32.20;;;;;;;8.31;82.40;99247.56;5072778;28;20020;-72
2021/01/03 10:10:06;;;;;;;33.03;20.98;;;;;;;8.44;82.06;99262.31;5072410;28;20032;-73
2021/01/03 10:12:40;;;;;;;25.30;13.68;;;;;;;8.37;81.54;99248.41;5071557;28;20031;-71
2021/01/03 10:15:08;;;;;;;22.67;12.45;;;;;;;8.45;81.56;99251.38;5072918;28;20490;-72
2021/01/03 10:17:37;;;;;;;21.83;13.52;;;;;;;8.39;81.50;99249.75;5070521;28;20036;-73
2021/01/03 10:20:15;;;;;;;;;;;;;;;8.49;81.44;99254.38;5072752;28;20502;-74
2021/01/03 10:22:44;;;;;;;27.52;12.73;;;;;;;8.52;81.14;99251.22;5071352;28;19947;-72
2021/01/03 10:25:13;;;;;;;25.40;13.18;;;;;;;8.55;81.67;99248.00;5072204;28;20125;-72
2021/01/03 10:27:39;;;;;;;25.70;12.90;;;;;;;8.56;81.67;99227.50;5071284;28;20020;-74
2021/01/03 10:30:08;;;;;;;25.90;13.63;;;;;;;8.60;82.01;99225.91;5072395;28;20467;-72
2021/01/03 10:32:37;;;;;;;34.50;17.08;;;;;;;8.59;81.92;99230.47;5071186;28;20111;-71
2021/01/03 10:35:07;;;;;;;36.88;16.95;;;;;;;8.64;82.02;99232.31;5070693;28;20040;-74
2021/01/03 10:37:32;;;;;;;39.88;18.52;;;;;;;8.70;82.04;99241.16;5072527;28;20060;-73
2021/01/03 10:39:57;;;;;;;38.72;17.52;;;;;;;8.74;81.88;99220.91;5070942;28;20554;-74
2021/01/03 10:42:23;;;;;;;23.42;12.77;;;;;;;8.80;82.22;99225.22;5071616;28;20020;-74
2021/01/03 10:44:49;;;;;;;28.58;14.68;;;;;;;8.84;81.70;99217.50;5072496;28;20492;-74
2021/01/03 10:47:14;;;;;;;37.22;17.38;;;;;;;8.90;82.20;99217.28;5070481;28;20450;-74
2021/01/03 10:49:40;;;;;;;34.53;16.70;;;;;;;8.97;81.70;99217.84;5070835;28;20039;-74
2021/01/03 10:52:05;;;;;;;30.75;16.52;;;;;;;9.04;81.36;99214.13;5071872;28;20395;-74
2021/01/03 10:54:31;;;;;;;36.28;18.73;;;;;;;9.12;81.20;99198.41;5071976;28;20078;-74
2021/01/03 10:56:58;;;;;;;31.65;16.13;;;;;;;9.21;81.01;99213.91;5070672;28;20020;-74
2021/01/03 10:59:25;;;;;;;34.88;18.08;;;;;;;9.28;80.73;99211.81;5070292;28;20035;-74
2021/01/03 11:01:52;;;;;;;56.20;30.73;;;;;;;9.34;80.52;99204.59;5070402;28;20032;-74
2021/01/03 11:04:19;;;;;;;73.88;37.70;;;;;;;9.41;80.71;99203.28;5070361;28;20028;-74
2021/01/03 11:06:47;;;;;;;70.55;37.47;;;;;;;9.48;80.19;99203.03;5070369;28;20016;-74
2021/01/03 11:09:22;;;;;;;73.75;38.38;;;;;;;9.49;79.92;99196.63;5070195;28;20039;-73
2021/01/03 11:11:47;;;;;;;75.18;37.92;;;;;;;9.61;79.87;99207.84;5071843;28;20025;-74
2021/01/03 11:14:14;;;;;;;63.63;33.72;;;;;;;9.69;79.84;99211.06;5070132;28;20410;-74
2021/01/03 11:16:41;;;;;;;58.33;33.17;;;;;;;9.76;79.07;99206.25;5070261;28;20389;-74
2021/01/03 11:19:10;;;;;;;52.10;33.40;;;;;;;9.83;79.01;99198.78;5069964;28;20036;-74
2021/01/03 11:21:35;;;;;;;54.40;29.77;;;;;;;9.88;79.03;99209.47;5070153;28;20035;-74
2021/01/03 11:24:01;;;;;;;45.22;27.48;;;;;;;9.94;79.11;99199.59;5071039;28;20033;-74
2021/01/03 11:26:29;;;;;;;39.88;22.63;;;;;;;9.94;78.64;99189.69;5069592;28;20082;-72
2021/01/03 11:28:55;;;;;;;38.35;22.25;;;;;;;10.02;78.82;99191.03;5071224;28;20032;-72
2021/01/03 11:31:20;;;;;;;31.83;18.33;;;;;;;10.11;78.43;99204.66;5069616;28;20108;-73
2021/01/03 11:33:46;;;;;;;26.20;15.15;;;;;;;10.15;78.01;99204.91;5069677;28;20178;-74
2021/01/03 11:36:11;;;;;;;32.22;17.42;;;;;;;10.21;77.87;99209.97;5070887;28;20476;-74
2021/01/03 11:38:37;;;;;;;24.98;15.23;;;;;;;10.26;78.28;99217.19;5086715;28;20025;-72
2021/01/03 11:41:03;;;;;;;26.33;14.13;;;;;;;10.26;77.73;99206.50;5069788;28;20024;-72
2021/01/03 11:43:28;;;;;;;31.38;15.20;;;;;;;10.33;77.63;99216.94;5069459;28;20036;-72